Temperanceville, Virginia
Current Conditions -  °F | °C
As of 3:54 PM on Tuesday 21 Oct 2014 (Local Time) from KWAL Reporting Station
Few Clouds Few Clouds  
Wind Chill: 72°   Ceiling: Unl
Heat Index: 72°   Visibility: 10mi
Dew Point: 49°   Wind: 6mph
Humidity: 44%   Direction: 270°W
Pressure: 29.8"   Gusts: NA
Location:  37.89°N, 75.55°W
Report Text: KWAL 211954Z 27005KT 10SM FEW040 22/09 A2980 RMK AO2 SLP089 T02220094
Loading
Personal Weather Stations






























Interactive Weather Map
Tropical Storm Tracking
New forecast layout! Learn more

10-Day Weather Forecast

Advertisements
Track Severe Weather on mobile